sensor_id;sensor_type;location;lat;lon;timestamp;pressure;altitude;pressure_sealevel;temperature;humidity
11413;BME280;5762;43.256;26.960;2023-03-14T00:01:14;100020.75;;;1.42;100.00
11413;BME280;5762;43.256;26.960;2023-03-14T00:03:42;100020.99;;;1.52;100.00
11413;BME280;5762;43.256;26.960;2023-03-14T00:06:11;100018.16;;;1.56;100.00
11413;BME280;5762;43.256;26.960;2023-03-14T00:08:41;100010.16;;;1.56;100.00
11413;BME280;5762;43.256;26.960;2023-03-14T00:11:16;100005.92;;;1.57;100.00
11413;BME280;5762;43.256;26.960;2023-03-14T00:13:39;100000.24;;;1.65;100.00
11413;BME280;5762;43.256;26.960;2023-03-14T00:16:10;99996.53;;;1.66;100.00
11413;BME280;5762;43.256;26.960;2023-03-14T00:18:39;99998.27;;;1.61;100.00
11413;BME280;5762;43.256;26.960;2023-03-14T00:21:09;100001.86;;;1.55;100.00
11413;BME280;5762;43.256;26.960;2023-03-14T00:23:40;100005.28;;;1.53;100.00
11413;BME280;5762;43.256;26.960;2023-03-14T00:26:13;100010.39;;;1.54;100.00
11413;BME280;5762;43.256;26.960;2023-03-14T00:28:41;100005.40;;;1.58;100.00
11413;BME280;5762;43.256;26.960;2023-03-14T00:31:12;99997.98;;;1.60;100.00
11413;BME280;5762;43.256;26.960;2023-03-14T00:33:40;99991.89;;;1.62;100.00
11413;BME280;5762;43.256;26.960;2023-03-14T00:36:09;99990.73;;;1.58;100.00
11413;BME280;5762;43.256;26.960;2023-03-14T00:38:39;99994.09;;;1.53;100.00
11413;BME280;5762;43.256;26.960;2023-03-14T00:41:09;99987.02;;;1.59;100.00
11413;BME280;5762;43.256;26.960;2023-03-14T00:43:37;99993.22;;;1.62;100.00
11413;BME280;5762;43.256;26.960;2023-03-14T00:46:06;99993.16;;;1.71;100.00
11413;BME280;5762;43.256;26.960;2023-03-14T00:48:35;99992.73;;;1.77;100.00
11413;BME280;5762;43.256;26.960;2023-03-14T00:51:05;99994.00;;;1.74;100.00
11413;BME280;5762;43.256;26.960;2023-03-14T00:53:37;99989.80;;;1.64;100.00
11413;BME280;5762;43.256;26.960;2023-03-14T00:56:06;99980.81;;;1.56;100.00
11413;BME280;5762;43.256;26.960;2023-03-14T00:58:35;99987.25;;;1.46;100.00
11413;BME280;5762;43.256;26.960;2023-03-14T01:01:10;99987.13;;;1.52;100.00
11413;BME280;5762;43.256;26.960;2023-03-14T01:03:38;99980.18;;;1.63;100.00
11413;BME280;5762;43.256;26.960;2023-03-14T01:06:08;99983.19;;;1.66;100.00
11413;BME280;5762;43.256;26.960;2023-03-14T01:08:37;99987.72;;;1.66;100.00
11413;BME280;5762;43.256;26.960;2023-03-14T01:11:07;99980.06;;;1.70;100.00
11413;BME280;5762;43.256;26.960;2023-03-14T01:13:36;99984.13;;;1.60;100.00
11413;BME280;5762;43.256;26.960;2023-03-14T01:16:06;99985.98;;;1.60;100.00
11413;BME280;5762;43.256;26.960;2023-03-14T01:18:35;99982.73;;;1.58;100.00
11413;BME280;5762;43.256;26.960;2023-03-14T01:21:09;99975.25;;;1.57;100.00
11413;BME280;5762;43.256;26.960;2023-03-14T01:23:34;99972.41;;;1.61;100.00
11413;BME280;5762;43.256;26.960;2023-03-14T01:26:03;99974.44;;;1.45;100.00
11413;BME280;5762;43.256;26.960;2023-03-14T01:28:32;99975.19;;;1.43;100.00
11413;BME280;5762;43.256;26.960;2023-03-14T01:31:08;99973.13;;;1.33;100.00
11413;BME280;5762;43.256;26.960;2023-03-14T01:33:36;99962.34;;;1.28;100.00
11413;BME280;5762;43.256;26.960;2023-03-14T01:36:06;99963.27;;;1.22;100.00
11413;BME280;5762;43.256;26.960;2023-03-14T01:38:35;99968.28;;;1.10;100.00
11413;BME280;5762;43.256;26.960;2023-03-14T01:41:05;99965.68;;;1.12;100.00
11413;BME280;5762;43.256;26.960;2023-03-14T01:43:34;99972.70;;;1.16;100.00
11413;BME280;5762;43.256;26.960;2023-03-14T01:48:48;99962.89;;;1.07;100.00
11413;BME280;5762;43.256;26.960;2023-03-14T01:51:25;99966.57;;;1.04;100.00
11413;BME280;5762;43.256;26.960;2023-03-14T01:53:48;99966.97;;;0.98;100.00
11413;BME280;5762;43.256;26.960;2023-03-14T01:56:17;99964.75;;;0.95;100.00
11413;BME280;5762;43.256;26.960;2023-03-14T01:58:47;99964.52;;;0.96;100.00
11413;BME280;5762;43.256;26.960;2023-03-14T02:01:17;99962.87;;;0.84;100.00
11413;BME280;5762;43.256;26.960;2023-03-14T02:03:53;99963.33;;;0.81;100.00
11413;BME280;5762;43.256;26.960;2023-03-14T02:06:23;99960.38;;;0.80;100.00
11413;BME280;5762;43.256;26.960;2023-03-14T02:08:51;99966.91;;;0.75;100.00
11413;BME280;5762;43.256;26.960;2023-03-14T02:11:21;99968.06;;;0.67;100.00
11413;BME280;5762;43.256;26.960;2023-03-14T02:13:50;99968.09;;;0.58;100.00
11413;BME280;5762;43.256;26.960;2023-03-14T02:16:19;99968.91;;;0.70;100.00
11413;BME280;5762;43.256;26.960;2023-03-14T02:18:48;99963.71;;;0.63;100.00
11413;BME280;5762;43.256;26.960;2023-03-14T02:21:18;99965.20;;;0.59;100.00
11413;BME280;5762;43.256;26.960;2023-03-14T02:23:51;99964.53;;;0.76;100.00
11413;BME280;5762;43.256;26.960;2023-03-14T02:26:16;99959.50;;;0.77;100.00
11413;BME280;5762;43.256;26.960;2023-03-14T02:28:45;99967.48;;;0.77;100.00
11413;BME280;5762;43.256;26.960;2023-03-14T02:31:13;99964.83;;;0.77;100.00
11413;BME280;5762;43.256;26.960;2023-03-14T02:33:42;99970.08;;;0.74;100.00
11413;BME280;5762;43.256;26.960;2023-03-14T02:36:11;99979.63;;;0.73;100.00
11413;BME280;5762;43.256;26.960;2023-03-14T02:41:13;99965.63;;;0.65;100.00
11413;BME280;5762;43.256;26.960;2023-03-14T02:43:42;99957.70;;;0.68;100.00
11413;BME280;5762;43.256;26.960;2023-03-14T02:46:12;99951.86;;;0.69;100.00
11413;BME280;5762;43.256;26.960;2023-03-14T02:48:45;99952.25;;;0.75;100.00
11413;BME280;5762;43.256;26.960;2023-03-14T02:51:12;99945.01;;;0.73;100.00
11413;BME280;5762;43.256;26.960;2023-03-14T02:53:41;99944.55;;;0.76;100.00
11413;BME280;5762;43.256;26.960;2023-03-14T02:56:10;99934.06;;;0.72;100.00
11413;BME280;5762;43.256;26.960;2023-03-14T02:58:39;99934.09;;;0.83;100.00
11413;BME280;5762;43.256;26.960;2023-03-14T03:01:08;99935.09;;;0.91;100.00
11413;BME280;5762;43.256;26.960;2023-03-14T03:03:36;99933.59;;;0.95;100.00
11413;BME280;5762;43.256;26.960;2023-03-14T03:06:05;99933.20;;;1.01;100.00
11413;BME280;5762;43.256;26.960;2023-03-14T03:08:35;99933.20;;;1.01;100.00
11413;BME280;5762;43.256;26.960;2023-03-14T03:11:04;99936.78;;;0.95;100.00
11413;BME280;5762;43.256;26.960;2023-03-14T03:13:33;99932.55;;;0.96;100.00
11413;BME280;5762;43.256;26.960;2023-03-14T03:16:01;99940.31;;;0.98;100.00
11413;BME280;5762;43.256;26.960;2023-03-14T03:18:30;99932.27;;;0.95;100.00
11413;BME280;5762;43.256;26.960;2023-03-14T03:21:02;99932.16;;;1.02;100.00
11413;BME280;5762;43.256;26.960;2023-03-14T03:23:31;99930.80;;;0.90;100.00
11413;BME280;5762;43.256;26.960;2023-03-14T03:26:00;99925.77;;;0.91;100.00
11413;BME280;5762;43.256;26.960;2023-03-14T03:28:29;99925.47;;;0.90;100.00
11413;BME280;5762;43.256;26.960;2023-03-14T03:30:58;99922.23;;;0.88;100.00
11413;BME280;5762;43.256;26.960;2023-03-14T03:33:27;99919.83;;;0.78;100.00
11413;BME280;5762;43.256;26.960;2023-03-14T03:35:55;99923.24;;;0.76;100.00
11413;BME280;5762;43.256;26.960;2023-03-14T03:38:24;99919.19;;;0.73;100.00
11413;BME280;5762;43.256;26.960;2023-03-14T03:40:53;99922.91;;;0.84;100.00
11413;BME280;5762;43.256;26.960;2023-03-14T03:43:22;99926.97;;;0.86;100.00
11413;BME280;5762;43.256;26.960;2023-03-14T03:45:51;99925.47;;;0.90;100.00
11413;BME280;5762;43.256;26.960;2023-03-14T03:48:20;99920.50;;;0.94;100.00
11413;BME280;5762;43.256;26.960;2023-03-14T03:50:49;99925.47;;;0.90;100.00
11413;BME280;5762;43.256;26.960;2023-03-14T03:53:17;99923.73;;;0.84;100.00
11413;BME280;5762;43.256;26.960;2023-03-14T03:55:46;99921.00;;;0.82;100.00
11413;BME280;5762;43.256;26.960;2023-03-14T03:58:15;99925.91;;;0.76;100.00
11413;BME280;5762;43.256;26.960;2023-03-14T04:00:43;99922.95;;;0.75;100.00
11413;BME280;5762;43.256;26.960;2023-03-14T04:03:11;99923.99;;;0.74;100.00
11413;BME280;5762;43.256;26.960;2023-03-14T04:05:40;99922.59;;;0.71;100.00
11413;BME280;5762;43.256;26.960;2023-03-14T04:08:08;99925.45;;;0.67;100.00
11413;BME280;5762;43.256;26.960;2023-03-14T04:10:37;99929.12;;;0.54;100.00
11413;BME280;5762;43.256;26.960;2023-03-14T04:13:05;99932.53;;;0.52;100.00
11413;BME280;5762;43.256;26.960;2023-03-14T04:15:34;99935.27;;;0.34;100.00
11413;BME280;5762;43.256;26.960;2023-03-14T04:18:03;99941.78;;;0.29;100.00
11413;BME280;5762;43.256;26.960;2023-03-14T04:20:33;99934.50;;;0.36;100.00
11413;BME280;5762;43.256;26.960;2023-03-14T04:23:01;99935.58;;;0.26;100.00
11413;BME280;5762;43.256;26.960;2023-03-14T04:25:30;99931.59;;;0.26;100.00
11413;BME280;5762;43.256;26.960;2023-03-14T04:27:58;99923.19;;;0.11;100.00
11413;BME280;5762;43.256;26.960;2023-03-14T04:30:26;99932.13;;;0.16;100.00
11413;BME280;5762;43.256;26.960;2023-03-14T04:32:56;99929.84;;;0.11;100.00
11413;BME280;5762;43.256;26.960;2023-03-14T04:35:25;99936.28;;;0.03;100.00
11413;BME280;5762;43.256;26.960;2023-03-14T04:37:53;99931.17;;;0.11;100.00
11413;BME280;5762;43.256;26.960;2023-03-14T04:40:21;99936.48;;;0.11;100.00
11413;BME280;5762;43.256;26.960;2023-03-14T04:42:50;99931.69;;;0.10;100.00
11413;BME280;5762;43.256;26.960;2023-03-14T04:45:18;99933.47;;;0.07;100.00
11413;BME280;5762;43.256;26.960;2023-03-14T04:47:47;99942.70;;;0.05;100.00
11413;BME280;5762;43.256;26.960;2023-03-14T04:50:15;99938.20;;;0.05;100.00
11413;BME280;5762;43.256;26.960;2023-03-14T04:52:45;99936.72;;;0.09;100.00
11413;BME280;5762;43.256;26.960;2023-03-14T04:55:15;99935.82;;;0.15;100.00
11413;BME280;5762;43.256;26.960;2023-03-14T04:57:44;99933.44;;;0.25;100.00
11413;BME280;5762;43.256;26.960;2023-03-14T05:00:13;99940.68;;;0.27;100.00
11413;BME280;5762;43.256;26.960;2023-03-14T05:02:42;99940.38;;;0.26;100.00
11413;BME280;5762;43.256;26.960;2023-03-14T05:05:11;99940.68;;;0.27;100.00
11413;BME280;5762;43.256;26.960;2023-03-14T05:07:40;99940.97;;;0.28;100.00
11413;BME280;5762;43.256;26.960;2023-03-14T05:10:09;99937.05;;;0.31;100.00
11413;BME280;5762;43.256;26.960;2023-03-14T05:12:38;99939.59;;;0.38;100.00
11413;BME280;5762;43.256;26.960;2023-03-14T05:15:07;99936.75;;;0.51;100.00
11413;BME280;5762;43.256;26.960;2023-03-14T05:17:37;99929.31;;;0.62;100.00
11413;BME280;5762;43.256;26.960;2023-03-14T05:20:06;99926.36;;;0.73;100.00
11413;BME280;5762;43.256;26.960;2023-03-14T05:22:42;99925.70;;;0.89;100.00
11413;BME280;5762;43.256;26.960;2023-03-14T05:25:11;99915.46;;;0.95;100.00
11413;BME280;5762;43.256;26.960;2023-03-14T05:27:40;99909.82;;;1.06;100.00
11413;BME280;5762;43.256;26.960;2023-03-14T05:30:08;99918.81;;;1.14;100.00
11413;BME280;5762;43.256;26.960;2023-03-14T05:32:36;99912.73;;;1.16;100.00
11413;BME280;5762;43.256;26.960;2023-03-14T05:35:05;99909.42;;;1.34;100.00
11413;BME280;5762;43.256;26.960;2023-03-14T05:37:34;99909.95;;;1.34;100.00
11413;BME280;5762;43.256;26.960;2023-03-14T05:40:03;99899.52;;;1.32;100.00
11413;BME280;5762;43.256;26.960;2023-03-14T05:42:33;99898.84;;;1.40;100.00
11413;BME280;5762;43.256;26.960;2023-03-14T05:45:01;99902.66;;;1.55;100.00
11413;BME280;5762;43.256;26.960;2023-03-14T05:47:28;99903.97;;;1.67;100.00
11413;BME280;5762;43.256;26.960;2023-03-14T05:49:57;99901.94;;;1.72;100.00
11413;BME280;5762;43.256;26.960;2023-03-14T05:52:26;99900.31;;;1.85;100.00
11413;BME280;5762;43.256;26.960;2023-03-14T05:54:55;99897.22;;;1.90;100.00
11413;BME280;5762;43.256;26.960;2023-03-14T05:57:24;99894.34;;;2.09;100.00
11413;BME280;5762;43.256;26.960;2023-03-14T05:59:52;99898.29;;;2.04;100.00
11413;BME280;5762;43.256;26.960;2023-03-14T06:02:21;99893.95;;;2.00;100.00
11413;BME280;5762;43.256;26.960;2023-03-14T06:04:49;99883.87;;;2.19;100.00
11413;BME280;5762;43.256;26.960;2023-03-14T06:07:19;99895.69;;;2.37;100.00
11413;BME280;5762;43.256;26.960;2023-03-14T06:09:48;99891.35;;;2.33;100.00
11413;BME280;5762;43.256;26.960;2023-03-14T06:12:16;99890.26;;;2.49;100.00
11413;BME280;5762;43.256;26.960;2023-03-14T06:14:44;99890.52;;;2.64;100.00
11413;BME280;5762;43.256;26.960;2023-03-14T06:17:13;99887.06;;;2.83;100.00
11413;BME280;5762;43.256;26.960;2023-03-14T06:19:45;99885.66;;;2.61;100.00
11413;BME280;5762;43.256;26.960;2023-03-14T06:22:14;99885.31;;;2.72;100.00
11413;BME280;5762;43.256;26.960;2023-03-14T06:24:42;99885.09;;;2.92;100.00
11413;BME280;5762;43.256;26.960;2023-03-14T06:27:11;99885.48;;;3.01;100.00
11413;BME280;5762;43.256;26.960;2023-03-14T06:29:39;99877.67;;;2.97;100.00
11413;BME280;5762;43.256;26.960;2023-03-14T06:32:08;99878.73;;;3.34;100.00
11413;BME280;5762;43.256;26.960;2023-03-14T06:34:37;99880.65;;;3.80;100.00
11413;BME280;5762;43.256;26.960;2023-03-14T06:37:05;99874.59;;;4.14;100.00
11413;BME280;5762;43.256;26.960;2023-03-14T06:39:34;99862.89;;;4.25;100.00
11413;BME280;5762;43.256;26.960;2023-03-14T06:42:03;99859.09;;;4.51;100.00
11413;BME280;5762;43.256;26.960;2023-03-14T06:44:31;99863.34;;;4.76;100.00
11413;BME280;5762;43.256;26.960;2023-03-14T06:47:00;99862.59;;;4.88;100.00
11413;BME280;5762;43.256;26.960;2023-03-14T06:49:29;99864.94;;;5.14;100.00
11413;BME280;5762;43.256;26.960;2023-03-14T06:52:01;99860.66;;;5.21;100.00
11413;BME280;5762;43.256;26.960;2023-03-14T06:54:29;99871.20;;;5.35;100.00
11413;BME280;5762;43.256;26.960;2023-03-14T06:56:58;99825.00;;;5.25;100.00
11413;BME280;5762;43.256;26.960;2023-03-14T06:59:27;99861.39;;;5.61;100.00
11413;BME280;5762;43.256;26.960;2023-03-14T07:01:56;99861.39;;;5.61;100.00
11413;BME280;5762;43.256;26.960;2023-03-14T07:04:25;99857.43;;;5.76;100.00
11413;BME280;5762;43.256;26.960;2023-03-14T07:06:54;99856.11;;;5.81;100.00
11413;BME280;5762;43.256;26.960;2023-03-14T07:09:23;99853.25;;;6.08;100.00
11413;BME280;5762;43.256;26.960;2023-03-14T07:11:52;99850.58;;;6.31;100.00
11413;BME280;5762;43.256;26.960;2023-03-14T07:14:21;99846.02;;;6.64;100.00
11413;BME280;5762;43.256;26.960;2023-03-14T07:16:50;99847.64;;;6.86;100.00
11413;BME280;5762;43.256;26.960;2023-03-14T07:19:18;99848.13;;;7.05;100.00
11413;BME280;5762;43.256;26.960;2023-03-14T07:21:47;99844.60;;;7.25;100.00
11413;BME280;5762;43.256;26.960;2023-03-14T07:24:16;99842.63;;;7.49;100.00
11413;BME280;5762;43.256;26.960;2023-03-14T07:26:45;99834.47;;;7.64;100.00
11413;BME280;5762;43.256;26.960;2023-03-14T07:29:13;99825.20;;;7.90;100.00
11413;BME280;5762;43.256;26.960;2023-03-14T07:31:41;99823.43;;;8.12;100.00
11413;BME280;5762;43.256;26.960;2023-03-14T07:34:10;99818.20;;;8.28;100.00
11413;BME280;5762;43.256;26.960;2023-03-14T07:36:38;99817.41;;;8.64;100.00
11413;BME280;5762;43.256;26.960;2023-03-14T07:39:06;99815.18;;;8.69;100.00
11413;BME280;5762;43.256;26.960;2023-03-14T07:41:36;99824.28;;;8.78;100.00
11413;BME280;5762;43.256;26.960;2023-03-14T07:44:04;99820.21;;;8.81;100.00
11413;BME280;5762;43.256;26.960;2023-03-14T07:46:33;99815.28;;;9.14;100.00
11413;BME280;5762;43.256;26.960;2023-03-14T07:49:02;99817.16;;;9.37;100.00
11413;BME280;5762;43.256;26.960;2023-03-14T07:51:31;99811.33;;;9.52;100.00
11413;BME280;5762;43.256;26.960;2023-03-14T07:54:00;99810.30;;;9.48;100.00
11413;BME280;5762;43.256;26.960;2023-03-14T07:56:29;99807.87;;;9.70;100.00
11413;BME280;5762;43.256;26.960;2023-03-14T07:58:58;99804.48;;;9.78;100.00
11413;BME280;5762;43.256;26.960;2023-03-14T08:01:26;99801.19;;;10.02;100.00
11413;BME280;5762;43.256;26.960;2023-03-14T08:03:55;99798.78;;;10.20;98.58
11413;BME280;5762;43.256;26.960;2023-03-14T08:06:23;99798.70;;;10.25;99.64
11413;BME280;5762;43.256;26.960;2023-03-14T08:08:51;99791.73;;;10.21;99.50
11413;BME280;5762;43.256;26.960;2023-03-14T08:11:20;99791.31;;;10.47;70.75
11413;BME280;5762;43.256;26.960;2023-03-14T08:13:49;99790.59;;;10.73;67.70
11413;BME280;5762;43.256;26.960;2023-03-14T08:16:18;99788.02;;;10.66;63.36
11413;BME280;5762;43.256;26.960;2023-03-14T08:18:47;99786.36;;;10.97;58.49
11413;BME280;5762;43.256;26.960;2023-03-14T08:21:15;99780.30;;;11.03;53.55
11413;BME280;5762;43.256;26.960;2023-03-14T08:23:44;99782.41;;;11.06;53.93
11413;BME280;5762;43.256;26.960;2023-03-14T08:26:13;99777.13;;;11.26;54.29
11413;BME280;5762;43.256;26.960;2023-03-14T08:28:42;99781.30;;;11.34;54.84
11413;BME280;5762;43.256;26.960;2023-03-14T08:31:10;99787.58;;;11.32;53.17
11413;BME280;5762;43.256;26.960;2023-03-14T08:33:40;99774.89;;;11.55;51.52
11413;BME280;5762;43.256;26.960;2023-03-14T08:36:09;99777.95;;;11.65;49.87
11413;BME280;5762;43.256;26.960;2023-03-14T08:38:37;99759.88;;;11.60;50.21
11413;BME280;5762;43.256;26.960;2023-03-14T08:41:06;99769.70;;;11.70;51.41
11413;BME280;5762;43.256;26.960;2023-03-14T08:43:35;99774.22;;;11.74;50.55
11413;BME280;5762;43.256;26.960;2023-03-14T08:46:03;99775.91;;;11.84;49.24
11413;BME280;5762;43.256;26.960;2023-03-14T08:48:32;99768.38;;;12.06;50.39
11413;BME280;5762;43.256;26.960;2023-03-14T08:51:07;99765.09;;;12.18;50.20
11413;BME280;5762;43.256;26.960;2023-03-14T08:53:36;99760.30;;;12.03;49.20
11413;BME280;5762;43.256;26.960;2023-03-14T08:56:05;99754.12;;;12.23;50.31
11413;BME280;5762;43.256;26.960;2023-03-14T08:58:34;99745.03;;;12.50;49.84
11413;BME280;5762;43.256;26.960;2023-03-14T09:01:08;99742.43;;;12.56;49.10
11413;BME280;5762;43.256;26.960;2023-03-14T09:03:32;99738.77;;;12.71;49.89
11413;BME280;5762;43.256;26.960;2023-03-14T09:06:02;99729.58;;;12.90;43.16
11413;BME280;5762;43.256;26.960;2023-03-14T09:08:30;99731.55;;;12.87;40.93
11413;BME280;5762;43.256;26.960;2023-03-14T09:10:59;99739.61;;;13.00;41.10
11413;BME280;5762;43.256;26.960;2023-03-14T09:13:27;99737.56;;;13.06;43.04
11413;BME280;5762;43.256;26.960;2023-03-14T09:15:56;99727.52;;;13.15;42.21
11413;BME280;5762;43.256;26.960;2023-03-14T09:18:25;99735.11;;;13.35;40.41
11413;BME280;5762;43.256;26.960;2023-03-14T09:20:54;99734.33;;;13.44;38.72
11413;BME280;5762;43.256;26.960;2023-03-14T09:23:23;99730.97;;;13.55;41.06
11413;BME280;5762;43.256;26.960;2023-03-14T09:25:55;99723.69;;;13.53;38.90
11413;BME280;5762;43.256;26.960;2023-03-14T09:28:20;99719.29;;;13.55;39.61
11413;BME280;5762;43.256;26.960;2023-03-14T09:30:49;99708.58;;;13.58;42.73
11413;BME280;5762;43.256;26.960;2023-03-14T09:33:18;99697.97;;;13.77;42.52
11413;BME280;5762;43.256;26.960;2023-03-14T09:35:46;99704.34;;;13.89;37.41
11413;BME280;5762;43.256;26.960;2023-03-14T09:38:15;99703.47;;;13.91;36.76
11413;BME280;5762;43.256;26.960;2023-03-14T09:40:44;99696.58;;;13.94;36.65
11413;BME280;5762;43.256;26.960;2023-03-14T09:43:14;99687.45;;;14.07;34.83
11413;BME280;5762;43.256;26.960;2023-03-14T09:45:43;99689.77;;;14.11;34.30
11413;BME280;5762;43.256;26.960;2023-03-14T09:48:16;99677.08;;;14.41;36.25
11413;BME280;5762;43.256;26.960;2023-03-14T09:50:46;99686.84;;;14.25;32.59
11413;BME280;5762;43.256;26.960;2023-03-14T09:53:19;99679.94;;;13.95;33.25
11413;BME280;5762;43.256;26.960;2023-03-14T09:55:48;99668.64;;;14.08;36.12
11413;BME280;5762;43.256;26.960;2023-03-14T09:58:18;99673.21;;;14.01;33.35
11413;BME280;5762;43.256;26.960;2023-03-14T10:00:46;99673.59;;;14.15;33.05
11413;BME280;5762;43.256;26.960;2023-03-14T10:03:29;99664.73;;;14.03;33.30
11413;BME280;5762;43.256;26.960;2023-03-14T10:05:56;99655.18;;;14.20;33.75
11413;BME280;5762;43.256;26.960;2023-03-14T10:08:24;99659.83;;;14.52;34.79
11413;BME280;5762;43.256;26.960;2023-03-14T10:10:54;99648.97;;;14.58;33.18
11413;BME280;5762;43.256;26.960;2023-03-14T10:13:26;99646.48;;;14.59;33.58
11413;BME280;5762;43.256;26.960;2023-03-14T10:15:55;99644.53;;;14.53;33.71
11413;BME280;5762;43.256;26.960;2023-03-14T10:18:24;99641.92;;;14.42;33.58
11413;BME280;5762;43.256;26.960;2023-03-14T10:21:06;99631.89;;;14.17;33.74
11413;BME280;5762;43.256;26.960;2023-03-14T10:23:35;99627.44;;;14.27;34.20
11413;BME280;5762;43.256;26.960;2023-03-14T10:26:06;99627.18;;;14.43;34.31
11413;BME280;5762;43.256;26.960;2023-03-14T10:28:45;99627.33;;;14.47;33.96
11413;BME280;5762;43.256;26.960;2023-03-14T10:31:04;99621.34;;;14.30;33.47
11413;BME280;5762;43.256;26.960;2023-03-14T10:33:36;99611.91;;;14.27;33.95
11413;BME280;5762;43.256;26.960;2023-03-14T10:36:05;99603.20;;;14.51;34.83
11413;BME280;5762;43.256;26.960;2023-03-14T10:38:35;99597.27;;;14.64;34.87
11413;BME280;5762;43.256;26.960;2023-03-14T10:41:14;99598.83;;;14.44;34.12
11413;BME280;5762;43.256;26.960;2023-03-14T10:43:35;99599.38;;;14.58;32.33
11413;BME280;5762;43.256;26.960;2023-03-14T10:46:09;99589.95;;;14.32;33.32
11413;BME280;5762;43.256;26.960;2023-03-14T10:48:39;99580.56;;;14.45;33.26
11413;BME280;5762;43.256;26.960;2023-03-14T10:56:20;99574.80;;;14.46;32.41
11413;BME280;5762;43.256;26.960;2023-03-14T10:58:49;99570.98;;;14.68;32.06
11413;BME280;5762;43.256;26.960;2023-03-14T11:06:42;99556.89;;;14.81;29.06
11413;BME280;5762;43.256;26.960;2023-03-14T11:09:18;99553.98;;;14.92;30.98
11413;BME280;5762;43.256;26.960;2023-03-14T11:11:46;99545.02;;;14.91;31.06
11413;BME280;5762;43.256;26.960;2023-03-14T11:14:21;99537.72;;;15.04;31.97
11413;BME280;5762;43.256;26.960;2023-03-14T11:17:00;99520.91;;;15.29;30.82
11413;BME280;5762;43.256;26.960;2023-03-14T11:19:31;99518.97;;;15.29;29.78
11413;BME280;5762;43.256;26.960;2023-03-14T11:29:36;99491.70;;;15.29;30.10
11413;BME280;5762;43.256;26.960;2023-03-14T11:32:02;99485.09;;;15.18;29.54
11413;BME280;5762;43.256;26.960;2023-03-14T11:34:49;99466.25;;;15.19;31.74
11413;BME280;5762;43.256;26.960;2023-03-14T11:37:17;99468.01;;;15.42;32.13
11413;BME280;5762;43.256;26.960;2023-03-14T11:39:45;99456.96;;;15.59;31.43
11413;BME280;5762;43.256;26.960;2023-03-14T11:42:15;99462.73;;;15.64;30.37
11413;BME280;5762;43.256;26.960;2023-03-14T11:44:45;99454.47;;;15.79;31.32
11413;BME280;5762;43.256;26.960;2023-03-14T11:57:22;99421.27;;;16.01;30.85
11413;BME280;5762;43.256;26.960;2023-03-14T11:59:50;99425.47;;;16.04;30.51
11413;BME280;5762;43.256;26.960;2023-03-14T12:05:18;99409.31;;;16.18;29.38
11413;BME280;5762;43.256;26.960;2023-03-14T12:07:34;99402.38;;;16.26;30.81
11413;BME280;5762;43.256;26.960;2023-03-14T12:10:03;99400.67;;;16.16;29.93
11413;BME280;5762;43.256;26.960;2023-03-14T12:12:32;99394.88;;;16.17;31.11
11413;BME280;5762;43.256;26.960;2023-03-14T12:15:00;99392.71;;;16.11;29.66
11413;BME280;5762;43.256;26.960;2023-03-14T12:17:39;99390.57;;;15.73;28.88
11413;BME280;5762;43.256;26.960;2023-03-14T12:20:17;99374.97;;;15.98;29.22
11413;BME280;5762;43.256;26.960;2023-03-14T12:22:50;99378.75;;;15.75;28.84
11413;BME280;5762;43.256;26.960;2023-03-14T12:25:23;99374.66;;;15.82;27.10
11413;BME280;5762;43.256;26.960;2023-03-14T12:30:26;99368.30;;;15.78;28.11
11413;BME280;5762;43.256;26.960;2023-03-14T12:35:45;99354.30;;;15.91;28.53
11413;BME280;5762;43.256;26.960;2023-03-14T12:48:25;99338.58;;;15.94;26.67
11413;BME280;5762;43.256;26.960;2023-03-14T12:50:55;99333.34;;;16.07;26.86
11413;BME280;5762;43.256;26.960;2023-03-14T12:56:16;99322.77;;;16.06;26.16
11413;BME280;5762;43.256;26.960;2023-03-14T13:01:26;99310.74;;;16.29;26.02
11413;BME280;5762;43.256;26.960;2023-03-14T13:03:58;99312.26;;;16.26;26.10
11413;BME280;5762;43.256;26.960;2023-03-14T13:11:55;99302.43;;;16.65;26.47
11413;BME280;5762;43.256;26.960;2023-03-14T13:14:24;99307.53;;;16.39;26.33
11413;BME280;5762;43.256;26.960;2023-03-14T13:16:53;99300.92;;;16.40;25.82
11413;BME280;5762;43.256;26.960;2023-03-14T13:19:23;99296.93;;;16.43;26.16
11413;BME280;5762;43.256;26.960;2023-03-14T13:21:52;99299.05;;;16.56;26.27
11413;BME280;5762;43.256;26.960;2023-03-14T13:24:23;99299.33;;;16.95;25.88
11413;BME280;5762;43.256;26.960;2023-03-14T13:26:54;99292.49;;;16.95;26.11
11413;BME280;5762;43.256;26.960;2023-03-14T13:29:21;99291.25;;;17.08;25.92
11413;BME280;5762;43.256;26.960;2023-03-14T13:31:50;99290.63;;;16.55;25.76
11413;BME280;5762;43.256;26.960;2023-03-14T13:34:19;99282.80;;;16.75;25.32
11413;BME280;5762;43.256;26.960;2023-03-14T13:36:51;99270.88;;;16.68;26.14
11413;BME280;5762;43.256;26.960;2023-03-14T13:39:19;99260.55;;;16.61;26.39
11413;BME280;5762;43.256;26.960;2023-03-14T13:41:48;99264.52;;;16.86;26.18
11413;BME280;5762;43.256;26.960;2023-03-14T13:44:17;99261.66;;;17.04;26.06
11413;BME280;5762;43.256;26.960;2023-03-14T13:46:46;99253.86;;;17.28;26.04
11413;BME280;5762;43.256;26.960;2023-03-14T13:49:18;99253.15;;;17.31;26.59
11413;BME280;5762;43.256;26.960;2023-03-14T13:51:44;99245.83;;;17.03;26.35
11413;BME280;5762;43.256;26.960;2023-03-14T13:54:17;99239.44;;;17.21;26.18
11413;BME280;5762;43.256;26.960;2023-03-14T13:56:45;99230.83;;;17.38;26.33
11413;BME280;5762;43.256;26.960;2023-03-14T13:59:30;99225.28;;;17.35;26.33
11413;BME280;5762;43.256;26.960;2023-03-14T14:01:59;99220.34;;;17.15;26.50
11413;BME280;5762;43.256;26.960;2023-03-14T14:04:28;99210.19;;;17.16;26.89
11413;BME280;5762;43.256;26.960;2023-03-14T14:06:58;99206.78;;;16.87;26.58
11413;BME280;5762;43.256;26.960;2023-03-14T14:09:27;99204.24;;;17.04;26.94
11413;BME280;5762;43.256;26.960;2023-03-14T14:11:57;99199.30;;;17.09;27.02
11413;BME280;5762;43.256;26.960;2023-03-14T14:14:34;99198.56;;;16.71;26.78